Time;durP1;ratioP1;P1;durP2;ratioP2;P2;SDS_P1;SDS_P2;PMS_P1;PMS_P2;Temp;Humidity;BMP_temperature;BMP_pressure;BME280_temperature;BME280_humidity;BME280_pressure;Samples;Min_cycle;Max_cycle;Signal;HPM_P1;HPM_P2
2023/04/26 00:00:12;;;;;;;7.00;2.62;;;;;;;4.84;64.58;98760.59;1709330;82;21450;-66
2023/04/26 00:02:40;;;;;;;8.65;2.25;;;;;;;4.87;64.64;98756.59;1656792;84;21046;-67
2023/04/26 00:05:07;;;;;;;8.40;2.08;;;;;;;4.89;64.57;98754.80;1712568;83;21005;-66
2023/04/26 00:07:34;;;;;;;;;;;;;;;4.91;64.67;98760.76;1711487;82;21047;-67
2023/04/26 00:10:00;;;;;;;14.67;3.17;;;;;;;4.97;64.67;98760.51;1709255;83;20128;-67
2023/04/26 00:12:26;;;;;;;11.15;2.95;;;;;;;4.97;64.96;98762.26;1706061;83;21056;-66
2023/04/26 00:14:53;;;;;;;11.95;2.80;;;;;;;4.96;64.97;98761.42;1703231;83;20982;-66
2023/04/26 00:17:19;;;;;;;6.80;2.17;;;;;;;4.99;65.20;98753.54;1661537;85;21101;-66
2023/04/26 00:19:45;;;;;;;7.40;2.25;;;;;;;5.02;64.87;98753.41;1706635;83;21111;-67
2023/04/26 00:22:12;;;;;;;11.38;3.02;;;;;;;5.04;64.85;98754.20;1708271;83;20971;-67
2023/04/26 00:24:38;;;;;;;8.55;3.10;;;;;;;5.03;65.13;98755.08;1722538;78;20970;-67
2023/04/26 00:27:08;;;;;;;9.00;2.42;;;;;;;5.04;64.88;98754.20;1799218;77;20950;-67
2023/04/26 00:29:34;;;;;;;9.28;2.42;;;;;;;5.03;64.98;98752.50;1809587;78;21016;-67
2023/04/26 00:32:00;;;;;;;15.58;3.70;;;;;;;5.03;64.95;98755.08;1799084;78;20930;-67
2023/04/26 00:34:33;;;;;;;11.50;2.60;;;;;;;5.02;64.93;98750.83;1806457;78;20981;-67
2023/04/26 00:36:59;;;;;;;9.13;2.42;;;;;;;5.03;64.96;98760.26;1795925;78;21532;-67
2023/04/26 00:39:26;;;;;;;9.75;2.33;;;;;;;5.07;65.32;98761.84;1796630;78;21437;-66
2023/04/26 00:41:53;;;;;;;8.00;2.52;;;;;;;5.07;65.40;98757.95;1794896;80;20949;-67
2023/04/26 00:44:19;;;;;;;8.93;2.62;;;;;;;5.07;65.08;98748.90;1801845;78;21065;-66
2023/04/26 00:46:47;;;;;;;11.85;3.08;;;;;;;5.08;65.13;98753.16;1800384;78;20977;-68
2023/04/26 00:49:18;;;;;;;10.70;2.58;;;;;;;5.11;65.25;98753.03;1797914;78;21010;-67
2023/04/26 00:51:46;;;;;;;7.65;2.60;;;;;;;5.12;65.32;98744.36;1798150;78;20988;-67
2023/04/26 00:54:12;;;;;;;;;;;;;;;5.13;65.39;98748.64;1801505;78;20907;-68
2023/04/26 00:56:39;;;;;;;9.35;2.30;;;;;;;5.12;65.47;98754.70;1798972;78;20488;-66
2023/04/26 00:59:06;;;;;;;8.33;2.62;;;;;;;5.10;65.25;98750.52;1796091;78;21066;-66
2023/04/26 01:01:33;;;;;;;9.08;2.37;;;;;;;5.09;65.40;98735.42;1795550;78;21061;-66
2023/04/26 01:04:00;;;;;;;10.28;2.65;;;;;;;5.10;65.49;98746.19;1798306;78;21040;-66
2023/04/26 01:06:30;;;;;;;9.38;2.72;;;;;;;5.12;65.45;98744.36;1794054;78;20959;-66
2023/04/26 01:08:58;;;;;;;7.83;2.58;;;;;;;5.12;65.57;98739.17;1798518;78;21005;-67
2023/04/26 01:11:24;;;;;;;12.10;2.75;;;;;;;5.16;65.61;98739.46;1795725;78;21528;-66
2023/04/26 01:13:52;;;;;;;7.70;2.90;;;;;;;5.16;65.50;98748.97;1797455;78;21682;-66
2023/04/26 01:16:19;;;;;;;12.47;2.85;;;;;;;5.16;65.72;98747.22;1772714;79;20988;-67
2023/04/26 01:18:52;;;;;;;;;;;;;;;5.18;65.57;98747.60;1748117;81;20958;-66
2023/04/26 01:21:24;;;;;;;9.38;2.22;;;;;;;5.14;65.56;98750.31;1773990;79;20192;-66
2023/04/26 01:23:51;;;;;;;10.25;2.40;;;;;;;5.09;65.81;98744.48;1776291;79;20957;-67
2023/04/26 01:26:18;;;;;;;;;;;;;;;5.08;65.70;98746.69;1780851;79;20949;-66
2023/04/26 01:28:48;;;;;;;11.95;2.92;;;;;;;5.06;66.12;98751.53;1759842;79;20144;-66
2023/04/26 01:31:15;;;;;;;7.15;2.00;;;;;;;5.04;66.04;98745.14;1747667;81;21040;-66
2023/04/26 01:33:41;;;;;;;8.95;2.47;;;;;;;5.05;65.96;98745.52;1782072;79;20985;-66
2023/04/26 01:36:10;;;;;;;9.50;2.55;;;;;;;5.07;66.14;98747.61;1799203;78;20978;-66
2023/04/26 01:38:37;;;;;;;12.60;2.95;;;;;;;5.09;65.98;98741.89;1798211;78;21037;-67
2023/04/26 01:41:03;;;;;;;10.45;3.30;;;;;;;5.06;66.02;98751.08;1795278;78;20946;-66
2023/04/26 01:43:29;;;;;;;7.25;2.05;;;;;;;5.04;66.01;98743.85;1807183;78;21013;-66
2023/04/26 01:45:56;;;;;;;11.25;2.58;;;;;;;5.06;66.03;98753.66;1804565;78;21069;-66
2023/04/26 01:48:22;;;;;;;11.70;2.60;;;;;;;5.05;66.04;98745.52;1798995;78;21049;-67
2023/04/26 01:50:48;;;;;;;10.93;3.00;;;;;;;5.04;66.28;98742.98;1796038;78;21507;-67
2023/04/26 01:53:14;;;;;;;7.50;2.72;;;;;;;5.07;66.33;98746.31;1785212;78;20999;-66
2023/04/26 01:55:40;;;;;;;9.28;2.33;;;;;;;5.09;66.42;98745.77;1796509;78;21290;-67
2023/04/26 01:58:07;;;;;;;13.08;2.62;;;;;;;5.13;66.35;98746.06;1794407;78;21076;-67
2023/04/26 02:00:33;;;;;;;7.80;2.42;;;;;;;5.15;66.54;98743.39;1796601;78;20966;-67
2023/04/26 02:02:59;;;;;;;10.30;2.62;;;;;;;5.15;66.40;98745.55;1795602;78;21132;-66
2023/04/26 02:05:26;;;;;;;11.60;3.20;;;;;;;5.16;66.49;98748.52;1789779;78;20923;-67
2023/04/26 02:07:52;;;;;;;6.03;2.12;;;;;;;5.16;66.32;98745.09;1795212;78;21057;-67
2023/04/26 02:10:18;;;;;;;10.32;2.40;;;;;;;5.14;66.53;98745.14;1793690;78;20942;-67
2023/04/26 02:12:45;;;;;;;12.05;2.58;;;;;;;5.12;66.35;98744.36;1795600;78;21497;-67
2023/04/26 02:15:11;;;;;;;9.95;2.50;;;;;;;5.12;66.76;98742.23;1790753;78;21001;-67
2023/04/26 02:17:38;;;;;;;7.83;2.50;;;;;;;5.13;66.72;98753.82;1795339;78;20963;-66
2023/04/26 02:20:09;;;;;;;7.30;2.05;;;;;;;5.13;66.48;98750.40;1795807;78;21552;-66
2023/04/26 02:22:34;;;;;;;12.65;2.77;;;;;;;5.13;66.56;98749.94;1793757;78;21455;-67
2023/04/26 02:25:02;;;;;;;12.18;3.10;;;;;;;5.11;66.62;98743.98;1794145;78;21469;-67
2023/04/26 02:27:28;;;;;;;9.13;2.85;;;;;;;5.05;66.63;98744.23;1788537;78;21068;-66
2023/04/26 02:29:54;;;;;;;9.08;2.50;;;;;;;5.07;66.77;98742.43;1793057;78;21006;-66
2023/04/26 02:32:21;;;;;;;8.10;2.10;;;;;;;5.08;66.84;98750.57;1792417;78;20990;-67
2023/04/26 02:34:47;;;;;;;6.30;2.35;;;;;;;5.02;66.95;98740.48;1791772;78;20997;-67
2023/04/26 02:37:14;;;;;;;8.03;2.15;;;;;;;5.04;66.98;98748.16;1799673;78;21458;-66
2023/04/26 02:39:40;;;;;;;11.73;2.52;;;;;;;5.03;66.88;98743.90;1791580;78;21029;-67
2023/04/26 02:42:10;;;;;;;11.20;2.05;;;;;;;5.03;67.00;98740.86;1790867;78;20953;-67
2023/04/26 02:44:38;;;;;;;7.33;2.30;;;;;;;5.05;66.99;98740.35;1791691;79;21088;-67
2023/04/26 02:47:04;;;;;;;11.25;2.47;;;;;;;5.04;67.13;98743.85;1794836;78;21454;-67
2023/04/26 02:49:30;;;;;;;9.48;2.72;;;;;;;5.05;67.37;98748.11;1790770;78;20966;-66
2023/04/26 02:51:56;;;;;;;9.68;2.65;;;;;;;5.03;67.33;98738.27;1795258;78;21025;-66
2023/04/26 02:54:23;;;;;;;14.07;3.62;;;;;;;5.03;67.27;98738.73;1796873;78;20988;-67
2023/04/26 02:56:49;;;;;;;7.53;2.15;;;;;;;5.00;67.29;98735.80;1791088;77;21470;-67
2023/04/26 02:59:15;;;;;;;10.85;2.83;;;;;;;4.97;67.58;98738.52;1796170;78;20958;-66
2023/04/26 03:01:42;;;;;;;10.40;2.33;;;;;;;4.97;67.79;98736.39;1797085;78;20981;-67
2023/04/26 03:04:08;;;;;;;15.98;2.98;;;;;;;4.96;67.51;98741.16;1800051;78;22482;-66
2023/04/26 03:06:35;;;;;;;11.15;2.40;;;;;;;4.96;67.31;98732.97;1798251;78;20923;-66
2023/04/26 03:09:01;;;;;;;8.73;2.55;;;;;;;4.96;67.40;98734.69;1782407;78;21010;-66
2023/04/26 03:11:28;;;;;;;13.85;2.52;;;;;;;4.95;67.42;98731.27;1798771;78;21038;-66
2023/04/26 03:13:54;;;;;;;7.28;2.50;;;;;;;4.96;67.52;98732.97;1796897;78;20910;-66
2023/04/26 03:16:22;;;;;;;19.60;2.98;;;;;;;4.94;67.58;98732.18;1790769;78;21485;-66
2023/04/26 03:18:49;;;;;;;7.92;2.85;;;;;;;4.95;67.63;98739.02;1797593;78;21045;-67
2023/04/26 03:21:15;;;;;;;12.70;2.67;;;;;;;4.95;67.60;98736.44;1793346;78;21049;-67
2023/04/26 03:23:42;;;;;;;9.58;2.80;;;;;;;4.94;67.87;98739.94;1794871;78;21021;-66
2023/04/26 03:26:08;;;;;;;8.40;2.77;;;;;;;4.97;67.77;98732.05;1797838;78;20998;-66
2023/04/26 03:28:34;;;;;;;13.45;2.67;;;;;;;4.99;67.84;98732.00;1791416;78;20969;-67
2023/04/26 03:31:01;;;;;;;12.20;2.60;;;;;;;4.98;67.79;98741.48;1795620;78;20950;-67
2023/04/26 03:33:28;;;;;;;9.75;2.37;;;;;;;4.97;67.84;98734.64;1794865;78;20950;-67
2023/04/26 03:35:54;;;;;;;8.95;2.65;;;;;;;4.96;68.07;98747.62;1793200;78;20935;-66
2023/04/26 03:38:22;;;;;;;11.10;2.95;;;;;;;4.94;68.02;98751.13;1792391;78;20951;-67
2023/04/26 03:40:49;;;;;;;9.20;2.33;;;;;;;4.95;68.21;98750.66;1797842;78;21077;-67
2023/04/26 03:43:15;;;;;;;9.00;2.83;;;;;;;4.93;68.11;98749.91;1800849;78;21005;-67
2023/04/26 03:45:45;;;;;;;16.30;2.58;;;;;;;4.91;68.30;98756.42;1793321;78;20910;-67
2023/04/26 03:48:11;;;;;;;12.65;2.60;;;;;;;4.91;68.35;98758.17;1795730;78;20994;-66
2023/04/26 03:50:38;;;;;;;13.43;2.30;;;;;;;4.92;68.26;98752.08;1795345;78;21012;-66
2023/04/26 03:53:04;;;;;;;9.63;2.63;;;;;;;4.89;68.50;98761.27;1797723;78;20990;-66
2023/04/26 03:55:30;;;;;;;7.70;2.80;;;;;;;4.89;68.17;98757.38;1799239;78;21037;-67
2023/04/26 03:57:56;;;;;;;8.53;2.27;;;;;;;4.89;68.27;98762.55;1797616;78;21033;-67
2023/04/26 04:00:23;;;;;;;10.90;2.72;;;;;;;4.90;68.34;98768.11;1798863;78;21012;-66
2023/04/26 04:02:49;;;;;;;8.27;2.57;;;;;;;4.91;68.23;98765.93;1798567;78;21123;-67
2023/04/26 04:05:16;;;;;;;7.47;2.10;;;;;;;4.91;68.30;98760.76;1804163;78;20996;-66
2023/04/26 04:07:47;;;;;;;7.92;2.60;;;;;;;4.92;68.40;98771.03;1796191;78;21521;-66
2023/04/26 04:10:11;;;;;;;9.35;2.30;;;;;;;4.92;68.33;98768.90;1767456;79;21064;-67
2023/04/26 04:12:37;;;;;;;9.00;2.53;;;;;;;4.88;68.38;98771.23;1797062;78;21061;-66
2023/04/26 04:15:05;;;;;;;11.50;2.40;;;;;;;4.89;68.20;98766.44;1795850;78;21044;-67
2023/04/26 04:17:31;;;;;;;11.53;2.47;;;;;;;4.86;68.27;98773.02;1795653;78;20989;-66
2023/04/26 04:20:04;;;;;;;13.78;2.65;;;;;;;4.89;68.76;98768.56;1791330;78;21081;-68
2023/04/26 04:22:31;;;;;;;9.50;2.70;;;;;;;4.92;68.44;98777.95;1797914;78;21003;-67
2023/04/26 04:24:59;;;;;;;8.80;2.20;;;;;;;4.92;68.49;98777.95;1795840;78;21099;-66
2023/04/26 04:27:26;;;;;;;10.82;2.58;;;;;;;4.92;68.46;98777.49;1798129;78;21006;-65
2023/04/26 04:29:53;;;;;;;16.87;2.30;;;;;;;4.93;68.41;98782.24;1795872;78;21043;-67
2023/04/26 04:32:22;;;;;;;;;;;;;;;4.94;68.65;98781.33;1796835;78;21616;-67
2023/04/26 04:34:50;;;;;;;9.13;2.15;;;;;;;4.97;68.65;98778.62;1791160;78;20182;-67
2023/04/26 04:37:17;;;;;;;9.05;2.45;;;;;;;5.00;68.68;98784.96;1781548;79;20989;-67
2023/04/26 04:39:43;;;;;;;14.43;2.73;;;;;;;5.04;68.65;98781.37;1796439;78;21006;-67
2023/04/26 04:42:11;;;;;;;6.08;2.15;;;;;;;5.09;68.74;98778.58;1774224;79;21156;-67
2023/04/26 04:44:38;;;;;;;14.75;2.92;;;;;;;5.13;68.56;98786.63;1771500;79;21009;-67
2023/04/26 04:47:04;;;;;;;;;;;;;;;5.09;68.52;98788.47;1770291;79;21038;-71
2023/04/26 04:49:31;;;;;;;11.25;2.08;;;;;;;5.08;68.70;98788.55;1772736;79;20101;-70
2023/04/26 04:51:57;;;;;;;8.78;3.20;;;;;;;5.08;68.59;98795.85;1767576;79;21035;-70
2023/04/26 04:54:25;;;;;;;10.15;2.62;;;;;;;5.11;68.93;98798.31;1769444;79;21050;-70
2023/04/26 04:56:53;;;;;;;9.48;2.35;;;;;;;5.13;68.93;98787.92;1765634;79;21503;-72
2023/04/26 04:59:20;;;;;;;10.20;2.30;;;;;;;5.13;68.92;98792.64;1766333;79;21481;-71
2023/04/26 05:01:46;;;;;;;6.40;2.05;;;;;;;5.14;68.79;98794.31;1770533;79;21524;-72
2023/04/26 05:04:12;;;;;;;7.58;2.95;;;;;;;5.15;68.80;98805.07;1764087;79;21656;-71
2023/04/26 05:06:43;;;;;;;10.63;2.60;;;;;;;5.22;68.89;98803.52;1797838;78;21048;-70
2023/04/26 05:09:09;;;;;;;7.62;2.27;;;;;;;5.24;69.01;98794.80;1794048;78;21118;-70
2023/04/26 05:11:37;;;;;;;7.47;2.15;;;;;;;5.25;68.94;98800.81;1790881;78;20998;-70
2023/04/26 05:14:04;;;;;;;9.53;2.47;;;;;;;5.28;68.86;98805.86;1792049;78;21092;-75
2023/04/26 05:16:30;;;;;;;9.00;2.15;;;;;;;5.34;68.96;98805.61;1794676;78;20953;-70
2023/04/26 05:18:56;;;;;;;12.70;2.87;;;;;;;5.42;69.15;98813.91;1790618;78;20954;-71
2023/04/26 05:21:22;;;;;;;9.25;1.92;;;;;;;5.56;69.06;98811.59;1790833;78;21355;-71
2023/04/26 05:23:49;;;;;;;7.42;2.27;;;;;;;5.60;68.95;98807.98;1792816;78;20977;-74
2023/04/26 05:26:16;;;;;;;10.13;2.12;;;;;;;5.70;68.93;98807.59;1795615;78;21038;-77
2023/04/26 05:28:42;;;;;;;10.82;2.37;;;;;;;5.75;68.95;98810.84;1768851;80;20997;-66
2023/04/26 05:31:09;;;;;;;17.80;3.70;;;;;;;5.82;68.81;98808.36;1791579;78;21391;-71
2023/04/26 05:33:35;;;;;;;11.97;2.85;;;;;;;5.93;69.06;98801.00;1794160;78;21136;-67
2023/04/26 05:36:01;;;;;;;11.65;2.77;;;;;;;6.03;68.94;98802.30;1787040;78;21117;-70
2023/04/26 05:38:28;;;;;;;8.35;2.85;;;;;;;6.11;68.84;98802.44;1788433;78;21304;-67
2023/04/26 05:40:55;;;;;;;8.53;2.37;;;;;;;6.25;69.06;98801.37;1751837;81;21118;-67
2023/04/26 05:43:23;;;;;;;10.28;2.30;;;;;;;6.47;69.15;98802.09;1770720;78;21515;-68
2023/04/26 05:45:54;;;;;;;8.30;2.53;;;;;;;6.64;69.12;98809.56;1798596;78;20993;-70
2023/04/26 05:48:21;;;;;;;6.92;2.50;;;;;;;6.69;68.58;98799.80;1796007;78;21524;-66
2023/04/26 05:50:49;;;;;;;6.33;2.20;;;;;;;6.71;68.63;98800.57;1798524;78;20998;-68
2023/04/26 05:53:16;;;;;;;13.45;2.22;;;;;;;6.71;68.50;98808.36;1803816;78;21534;-67
2023/04/26 05:55:42;;;;;;;5.43;1.80;;;;;;;6.67;68.21;98812.02;1797964;78;21643;-72
2023/04/26 05:58:09;;;;;;;6.72;2.00;;;;;;;6.48;67.69;98818.02;1749770;80;21014;-70
2023/04/26 06:00:41;;;;;;;9.93;2.35;;;;;;;6.36;68.37;98818.58;1731172;81;21078;-67
2023/04/26 06:03:06;;;;;;;9.00;2.08;;;;;;;6.32;68.04;98817.02;1736865;81;20998;-70
2023/04/26 06:05:32;;;;;;;5.47;1.82;;;;;;;6.22;68.06;98817.06;1763029;79;21049;-66
2023/04/26 06:08:00;;;;;;;6.00;2.10;;;;;;;6.17;68.19;98817.70;1732217;81;21017;-67
2023/04/26 06:10:26;;;;;;;;;;;;;;;6.21;68.47;98819.25;1767801;79;21078;-68
2023/04/26 06:12:54;;;;;;;12.85;2.90;;;;;;;6.33;68.30;98825.63;1737123;81;20155;-65
2023/04/26 06:15:21;;;;;;;9.08;1.87;;;;;;;6.41;67.98;98815.77;1801069;78;21495;-69
2023/04/26 06:17:47;;;;;;;8.73;2.02;;;;;;;6.49;68.27;98804.13;1800246;78;21606;-75
2023/04/26 06:20:18;;;;;;;5.80;2.10;;;;;;;6.67;68.52;98793.86;1800508;78;21032;-71
2023/04/26 06:22:42;;;;;;;9.98;2.40;;;;;;;7.02;68.86;98796.55;1794901;78;21591;-67
2023/04/26 06:25:08;;;;;;;7.03;2.08;;;;;;;7.37;68.69;98803.48;1797664;78;21567;-68
2023/04/26 06:27:38;;;;;;;7.72;2.25;;;;;;;7.59;68.31;98806.34;1795842;78;21069;-67
2023/04/26 06:30:06;;;;;;;5.45;1.40;;;;;;;7.64;67.65;98819.91;1800825;78;20961;-73
2023/04/26 06:32:32;;;;;;;5.17;1.90;;;;;;;7.65;67.09;98811.22;1801288;78;20982;-67
2023/04/26 06:34:59;;;;;;;6.72;1.87;;;;;;;7.48;67.36;98815.08;1793866;78;20918;-70
2023/04/26 06:37:25;;;;;;;7.10;3.08;;;;;;;7.35;67.44;98810.50;1800277;78;20960;-72
2023/04/26 06:39:51;;;;;;;5.85;2.25;;;;;;;7.27;67.44;98819.12;1791547;78;21395;-67
2023/04/26 06:42:17;;;;;;;10.32;2.10;;;;;;;7.15;67.14;98802.84;1794789;78;21633;-68
2023/04/26 06:44:44;;;;;;;9.93;2.25;;;;;;;7.01;67.13;98815.64;1795417;78;21022;-70
2023/04/26 06:47:10;;;;;;;10.45;2.35;;;;;;;6.94;67.36;98810.71;1794214;78;20946;-70
2023/04/26 06:49:36;;;;;;;14.20;3.08;;;;;;;6.97;67.71;98809.73;1798398;78;20990;-67
2023/04/26 06:52:03;;;;;;;9.98;2.20;;;;;;;7.04;67.43;98810.30;1794953;78;20996;-70
2023/04/26 06:54:30;;;;;;;9.80;2.17;;;;;;;6.94;67.02;98810.71;1801005;78;21535;-67
2023/04/26 06:56:56;;;;;;;7.80;1.98;;;;;;;6.84;67.20;98818.56;1804932;78;20946;-70
2023/04/26 06:59:24;;;;;;;9.20;2.20;;;;;;;6.78;67.34;98814.09;1801716;78;21536;-67
2023/04/26 07:01:51;;;;;;;7.72;2.17;;;;;;;6.69;67.23;98821.41;1797964;78;20982;-69
2023/04/26 07:04:19;;;;;;;4.00;1.80;;;;;;;6.73;67.55;98824.70;1800373;78;21128;-67
2023/04/26 07:06:46;;;;;;;6.03;2.50;;;;;;;6.75;67.41;98825.48;1799293;78;20945;-66
2023/04/26 07:09:14;;;;;;;11.35;2.77;;;;;;;6.87;67.46;98821.01;1797084;78;20989;-64
2023/04/26 07:11:43;;;;;;;11.22;2.62;;;;;;;7.00;67.48;98820.42;1797204;78;21445;-68
2023/04/26 07:14:10;;;;;;;5.25;1.70;;;;;;;7.18;67.57;98813.08;1806536;78;20943;-70
2023/04/26 07:16:37;;;;;;;8.25;4.03;;;;;;;7.40;67.41;98808.52;1798159;78;21020;-68
2023/04/26 07:19:03;;;;;;;10.30;2.62;;;;;;;7.39;66.80;98814.64;1767138;79;20975;-65
2023/04/26 07:21:31;;;;;;;6.00;2.30;;;;;;;7.35;66.89;98820.05;1738267;81;20963;-68
2023/04/26 07:23:58;;;;;;;15.68;6.67;;;;;;;7.25;66.55;98815.74;1746145;79;21669;-67
2023/04/26 07:26:25;;;;;;;11.67;6.27;;;;;;;7.10;66.61;98824.28;1745372;81;22175;-69
2023/04/26 07:28:52;;;;;;;7.30;2.42;;;;;;;7.04;66.68;98832.36;1787426;78;21500;-68
2023/04/26 07:31:20;;;;;;;5.33;1.98;;;;;;;7.00;66.68;98824.31;1790499;78;21021;-66
2023/04/26 07:33:47;;;;;;;6.22;2.15;;;;;;;6.86;66.59;98829.72;1785231;78;20989;-64
2023/04/26 07:36:13;;;;;;;6.30;2.02;;;;;;;6.78;66.66;98833.12;1793068;78;20963;-64
2023/04/26 07:38:40;;;;;;;5.95;2.10;;;;;;;6.64;66.69;98838.09;1790881;78;20987;-73
2023/04/26 07:41:06;;;;;;;6.47;2.23;;;;;;;6.55;66.91;98838.48;1790621;78;21042;-69
2023/04/26 07:43:33;;;;;;;5.95;2.50;;;;;;;6.48;67.47;98838.77;1791249;78;21747;-67
2023/04/26 07:46:01;;;;;;;5.00;2.17;;;;;;;6.28;67.76;98845.30;1791138;78;21013;-65
2023/04/26 07:48:28;;;;;;;9.28;2.47;;;;;;;6.16;67.56;98850.57;1796550;78;21009;-65
2023/04/26 07:50:54;;;;;;;11.53;2.90;;;;;;;5.96;67.40;98853.14;1793856;78;21003;-65
2023/04/26 07:53:24;;;;;;;5.67;2.67;;;;;;;5.85;68.27;98858.74;1788469;78;21033;-69
2023/04/26 07:55:53;;;;;;;6.15;2.00;;;;;;;5.77;68.20;98864.27;1789290;78;21016;-72
2023/04/26 07:58:20;;;;;;;3.20;1.72;;;;;;;5.70;68.30;98874.94;1790698;78;21020;-70
2023/04/26 08:00:46;;;;;;;4.47;2.30;;;;;;;5.74;68.90;98873.89;1788720;78;20927;-72
2023/04/26 08:03:16;;;;;;;9.48;2.02;;;;;;;5.88;68.82;98872.89;1795519;78;21056;-67
2023/04/26 08:05:43;;;;;;;2.10;1.15;;;;;;;5.99;69.07;98874.61;1791258;78;20972;-68
2023/04/26 08:08:12;;;;;;;2.42;1.27;;;;;;;5.98;69.13;98870.31;1790804;78;20902;-66
2023/04/26 08:10:41;;;;;;;3.08;1.30;;;;;;;5.78;68.99;98885.83;1793701;78;21120;-62
2023/04/26 08:13:10;;;;;;;3.70;1.35;;;;;;;5.40;69.04;98894.66;1762760;78;20994;-61
2023/04/26 08:15:37;;;;;;;2.25;1.15;;;;;;;5.20;69.25;98893.31;1792810;78;20962;-64
2023/04/26 08:18:03;;;;;;;3.25;1.10;;;;;;;4.96;70.40;98890.77;1793768;78;21016;-62
2023/04/26 08:20:31;;;;;;;3.12;1.10;;;;;;;5.03;70.79;98896.09;1796127;78;21569;-63
2023/04/26 08:22:59;;;;;;;4.05;1.70;;;;;;;5.18;71.20;98896.41;1790596;78;20965;-61
2023/04/26 08:25:25;;;;;;;3.92;1.67;;;;;;;5.27;70.98;98899.95;1794335;78;20945;-62
2023/04/26 08:27:51;;;;;;;3.60;1.30;;;;;;;5.26;70.99;98891.78;1796322;78;21914;-62
2023/04/26 08:30:18;;;;;;;3.27;1.15;;;;;;;5.22;70.88;98896.70;1788883;78;21567;-62
2023/04/26 08:32:45;;;;;;;6.53;3.10;;;;;;;5.14;71.37;98896.52;1794515;78;21560;-61
2023/04/26 08:35:12;;;;;;;4.35;2.17;;;;;;;5.23;71.77;98894.48;1797770;78;21540;-62
2023/04/26 08:37:38;;;;;;;7.20;4.08;;;;;;;5.24;71.66;98895.73;1793310;78;21472;-61
2023/04/26 08:40:10;;;;;;;5.12;2.37;;;;;;;5.23;71.79;98886.72;1783833;78;21710;-60
2023/04/26 08:42:56;;;;;;;6.53;3.08;;;;;;;5.21;71.78;98893.27;1779704;79;21099;-64
2023/04/26 08:45:10;;;;;;;6.42;3.77;;;;;;;5.19;71.90;98894.23;1772744;79;21540;-65
2023/04/26 08:47:45;;;;;;;6.95;3.20;;;;;;;5.31;73.62;98904.09;1772492;78;21572;-64
2023/04/26 08:50:14;;;;;;;10.00;5.42;;;;;;;5.39;73.94;98902.05;1770329;79;21010;-64
2023/04/26 08:52:41;;;;;;;6.85;2.15;;;;;;;5.46;74.40;98901.34;1769463;79;21021;-62
2023/04/26 08:55:13;;;;;;;;;;;;;;;5.52;74.99;98896.79;1780808;79;21053;-62
2023/04/26 08:57:41;;;;;;;11.65;4.80;;;;;;;5.51;74.18;98902.85;1780324;79;20136;-62
2023/04/26 09:00:12;;;;;;;6.67;2.87;;;;;;;5.61;73.47;98905.48;1786489;79;21639;-62
2023/04/26 09:02:47;;;;;;;7.75;3.17;;;;;;;5.76;74.03;98901.88;1770947;79;21061;-64
2023/04/26 09:05:14;;;;;;;11.73;2.90;;;;;;;5.88;73.70;98902.69;1764669;79;21619;-63
2023/04/26 09:07:45;;;;;;;10.03;4.80;;;;;;;5.94;73.41;98902.46;1768746;79;21064;-63
2023/04/26 09:10:12;;;;;;;10.88;4.90;;;;;;;5.97;73.67;98904.92;1741593;81;21005;-63
2023/04/26 09:12:39;;;;;;;8.60;3.70;;;;;;;6.03;73.63;98912.44;1745165;80;21044;-66
2023/04/26 09:15:06;;;;;;;8.25;3.85;;;;;;;6.10;73.66;98914.77;1748371;81;21394;-63
2023/04/26 09:17:33;;;;;;;;;;;;;;;6.18;73.80;98914.83;1748708;81;21000;-63
2023/04/26 09:20:05;;;;;;;3.50;2.00;;;;;;;6.36;74.13;98908.03;1761283;80;20162;-63
2023/04/26 09:22:35;;;;;;;8.95;2.15;;;;;;;6.37;73.74;98917.48;1735895;81;21076;-65
2023/04/26 09:25:04;;;;;;;5.65;2.60;;;;;;;6.50;74.44;98917.35;1780951;79;21037;-64
2023/04/26 09:27:38;;;;;;;5.33;1.42;;;;;;;6.64;74.12;98914.62;1766800;79;21435;-64
2023/04/26 09:30:09;;;;;;;5.28;2.45;;;;;;;6.54;73.57;98918.52;1747272;81;20905;-63
2023/04/26 09:32:50;;;;;;;3.77;1.75;;;;;;;6.48;73.66;98920.46;1768746;79;20963;-62
2023/04/26 09:35:32;;;;;;;4.58;2.02;;;;;;;6.40;73.72;98931.61;1779217;79;21014;-63
2023/04/26 09:38:07;;;;;;;8.50;3.40;;;;;;;6.43;73.89;98930.19;1782692;79;20931;-63
2023/04/26 09:40:36;;;;;;;10.82;3.95;;;;;;;6.34;73.98;98927.99;1784679;78;21052;-63
2023/04/26 09:43:06;;;;;;;10.30;2.20;;;;;;;6.43;74.24;98934.07;1796473;78;21048;-62
2023/04/26 09:45:48;;;;;;;6.30;2.62;;;;;;;6.42;74.45;98941.94;1767275;79;21031;-63
2023/04/26 09:48:31;;;;;;;8.23;3.05;;;;;;;6.40;74.44;98948.47;1760045;80;21005;-63
2023/04/26 09:50:56;;;;;;;3.45;2.00;;;;;;;6.41;75.04;98954.06;1710131;81;21068;-63
2023/04/26 09:53:36;;;;;;;4.30;1.98;;;;;;;6.47;75.00;98953.80;1799995;78;20977;-63
2023/04/26 09:56:08;;;;;;;10.18;2.77;;;;;;;6.48;74.78;98964.55;1794749;78;20982;-63
2023/04/26 09:58:37;;;;;;;6.53;2.52;;;;;;;6.50;75.15;98964.03;1796922;78;21108;-65
2023/04/26 10:01:09;;;;;;;9.98;2.17;;;;;;;6.56;74.95;98965.98;1784426;79;21565;-63
2023/04/26 10:03:35;;;;;;;5.78;1.90;;;;;;;6.45;74.92;98968.57;1791264;78;20982;-65
2023/04/26 10:06:12;;;;;;;3.98;1.75;;;;;;;6.34;74.99;98973.37;1787572;78;20991;-64
2023/04/26 10:08:36;;;;;;;3.52;1.40;;;;;;;6.31;74.98;98976.09;1765812;78;22194;-63
2023/04/26 10:11:12;;;;;;;4.40;1.70;;;;;;;6.34;75.00;98975.96;1792755;78;21037;-63
2023/04/26 10:13:40;;;;;;;3.20;1.50;;;;;;;6.33;75.16;98973.42;1793599;78;21001;-63
2023/04/26 10:16:09;;;;;;;3.90;1.80;;;;;;;6.22;74.81;98979.08;1795166;78;21037;-63
2023/04/26 10:18:36;;;;;;;7.40;1.65;;;;;;;6.24;75.24;98974.64;1788301;78;20974;-63
2023/04/26 10:21:21;;;;;;;5.22;2.15;;;;;;;6.19;75.07;98979.17;1792392;79;21021;-64
2023/04/26 10:23:48;;;;;;;5.55;2.08;;;;;;;6.28;75.52;98982.70;1797495;78;21497;-67
2023/04/26 10:26:48;;;;;;;5.37;1.98;;;;;;;6.33;75.35;98989.84;1793732;78;21010;-64
2023/04/26 10:29:15;;;;;;;5.60;2.10;;;;;;;6.45;75.44;98997.09;1785132;78;21068;-64
2023/04/26 10:32:04;;;;;;;6.58;2.45;;;;;;;6.49;75.65;98997.34;1792571;78;20976;-64
2023/04/26 10:34:33;;;;;;;6.90;2.60;;;;;;;6.58;75.43;99003.05;1795664;78;21105;-65
2023/04/26 10:37:13;;;;;;;8.90;2.70;;;;;;;6.58;75.42;98999.16;1790123;78;21056;-63
2023/04/26 10:39:41;;;;;;;6.90;2.65;;;;;;;6.73;75.56;98999.82;1788650;78;21045;-64
2023/04/26 10:42:24;;;;;;;6.95;2.85;;;;;;;6.78;75.51;98996.58;1794233;78;21051;-63
2023/04/26 10:44:52;;;;;;;8.78;2.80;;;;;;;6.99;75.94;99000.44;1789248;78;21056;-64
2023/04/26 10:47:35;;;;;;;8.45;2.62;;;;;;;7.49;76.85;99001.20;1790625;78;21005;-64
2023/04/26 10:50:03;;;;;;;9.55;2.50;;;;;;;8.19;77.31;98997.84;1792541;78;21018;-63
2023/04/26 10:52:29;;;;;;;9.40;2.72;;;;;;;9.09;77.65;98996.34;1789979;78;21057;-63
2023/04/26 10:54:58;;;;;;;5.22;1.87;;;;;;;9.99;77.21;98999.69;1793325;78;21041;-64
2023/04/26 10:57:36;;;;;;;8.08;2.55;;;;;;;10.60;76.16;99004.48;1788206;78;20968;-64
2023/04/26 11:00:12;;;;;;;9.18;2.37;;;;;;;10.84;74.76;99004.82;1749498;80;22423;-64
2023/04/26 11:02:54;;;;;;;8.23;3.00;;;;;;;10.78;74.30;99011.69;1730038;80;21109;-63
2023/04/26 11:05:43;;;;;;;8.13;2.22;;;;;;;10.55;73.29;99013.05;1742139;80;21144;-64
2023/04/26 11:08:35;;;;;;;6.62;1.67;;;;;;;10.13;72.73;99016.33;1743799;80;21669;-62
2023/04/26 11:11:12;;;;;;;5.95;1.87;;;;;;;9.37;72.86;99024.37;1742503;80;20926;-64
2023/04/26 11:13:42;;;;;;;6.40;1.70;;;;;;;9.18;73.76;99024.49;1740335;80;20989;-62
2023/04/26 11:16:12;;;;;;;8.68;1.80;;;;;;;9.11;73.73;99029.66;1744292;80;21088;-63
2023/04/26 11:18:41;;;;;;;8.05;2.02;;;;;;;9.18;73.84;99033.61;1742723;80;21584;-63
2023/04/26 11:21:11;;;;;;;4.97;1.55;;;;;;;9.19;73.27;99032.70;1735702;80;21033;-64
2023/04/26 11:23:40;;;;;;;7.58;1.87;;;;;;;9.25;73.21;99033.31;1739947;80;20991;-62
2023/04/26 11:26:10;;;;;;;8.25;2.20;;;;;;;9.22;71.52;99038.22;1746582;80;20971;-63
2023/04/26 11:28:37;;;;;;;7.67;2.37;;;;;;;9.27;72.00;99039.27;1741667;80;21041;-62
2023/04/26 11:31:05;;;;;;;7.37;1.77;;;;;;;9.46;73.24;99039.97;1745788;80;21053;-64
2023/04/26 11:33:35;;;;;;;6.92;1.98;;;;;;;9.80;73.52;99038.14;1742121;80;21022;-63
2023/04/26 11:36:03;;;;;;;8.55;1.70;;;;;;;9.86;72.13;99045.65;1746527;78;21124;-63
2023/04/26 11:38:29;;;;;;;6.72;1.72;;;;;;;9.73;71.26;99049.84;1779235;79;21124;-63
2023/04/26 11:40:58;;;;;;;7.30;1.53;;;;;;;9.40;70.28;99052.03;1773235;79;21064;-63
2023/04/26 11:43:39;;;;;;;4.45;1.30;;;;;;;9.14;70.45;99050.34;1771398;79;21463;-68
2023/04/26 11:46:05;;;;;;;6.00;1.60;;;;;;;9.33;72.09;99057.20;1767414;78;20997;-68